Aérodrome :
LOGIN :

S'inscrire | Disclaimer

   EN    FR    IT 

 










Légende :    VFR   VFR Marginal   IFR   IFR Intensif   IFR Très Intensif
Visi : 
Plafond : 
>= 8 km
>= 3000ft
5 à 8 km
1000 à 3000 ft
1500m à 5 km
500 à 1000 ft
800 à 1500m
200 à 500 ft
< 800m
< 200 ft
Symboles :   Orages  Brouillard  Fortes neiges  Fortes précipitations  Vent > 20 kt
SIGMETs :   Divers  Orages  Givrage  Turbulence  Onde Orograph.  Cendres Volcan.







- Altitude de l'aérodrome : 1411 ft
- Code IATA : SZG


LOWS - Salzburg

DERNIER METAR :
  • 230450Z 36002KT 4500 -SN BR FEW006 OVC009 M05/M06 Q0998 TEMPO 2500

METARs EXPIRÉS :
  • 230420Z AUTO 32003KT 5000 BR FEW006 BKN009 M04/M06 Q0999
  • 230350Z AUTO 32004KT 5000 BR FEW006 BKN009 M05/M06 Q0999
  • 230320Z AUTO 33004KT 300V360 6000 FEW007 BKN009 M04/M06 Q0999
  • 230250Z AUTO 35004KT 7000 FEW009 BKN011 M04/M06 Q0999
  • 230220Z AUTO 35004KT 7000 FEW008 BKN012 M04/M07 Q1000

TAF AMD TAF LOWS
Valide du 23 à 03h jusqu'au 24 à 00h UTC


230328Z 2303/2324 03005KT 7000 FEW010 BKN013 TXM01/2313Z TNM05/2324Z
TEMPO 2303/2309 3000 -SN FEW003 BKN006
BECMG 2309/2311 9999 SCT040 BKN110
BECMG 2312/2314 FEW040 SCT110
Pas de NOTAMs connus pour ce terrain.



MET'MAP, la Météo Aéronautique d'un coup d'oeil ! - Copyright ORBIFLY Décembre 2007 - Disclaimer

ORBIFLY MET'MAP TEAM :

Programmation & Développement : Alexandra Zaïnal
Conception & Développement : Baudouin d'Aumeries
Co-Programmation & Développement : Marc-Olivier Méhu
Soutien technique & logistique : Manuel Goepfert

Contact : metmap@orbifly.com




SOURCES & CREDITS :

   NOAA